sensor_id;sensor_type;location;lat;lon;timestamp;temperature;humidity
20590;DHT22;10453;50.810;12.540;2023-09-18T00:01:11;15.30;99.90
20590;DHT22;10453;50.810;12.540;2023-09-18T00:05:29;15.30;99.90
20590;DHT22;10453;50.810;12.540;2023-09-18T00:09:46;15.40;99.90
20590;DHT22;10453;50.810;12.540;2023-09-18T00:14:07;15.40;99.90
20590;DHT22;10453;50.810;12.540;2023-09-18T00:18:24;15.40;99.90
20590;DHT22;10453;50.810;12.540;2023-09-18T00:22:41;15.40;99.90
20590;DHT22;10453;50.810;12.540;2023-09-18T00:26:58;15.20;99.90
20590;DHT22;10453;50.810;12.540;2023-09-18T00:31:16;15.10;99.90
20590;DHT22;10453;50.810;12.540;2023-09-18T00:35:33;14.90;99.90
20590;DHT22;10453;50.810;12.540;2023-09-18T00:39:50;15.00;99.90
20590;DHT22;10453;50.810;12.540;2023-09-18T00:44:08;14.90;99.90
20590;DHT22;10453;50.810;12.540;2023-09-18T00:48:25;14.70;99.90
20590;DHT22;10453;50.810;12.540;2023-09-18T00:52:44;14.60;99.90
20590;DHT22;10453;50.810;12.540;2023-09-18T00:57:02;14.50;99.90
20590;DHT22;10453;50.810;12.540;2023-09-18T01:01:19;14.50;99.90
20590;DHT22;10453;50.810;12.540;2023-09-18T01:05:40;14.50;99.90
20590;DHT22;10453;50.810;12.540;2023-09-18T01:09:57;14.50;99.90
20590;DHT22;10453;50.810;12.540;2023-09-18T01:18:37;14.40;99.90
20590;DHT22;10453;50.810;12.540;2023-09-18T01:22:55;14.30;99.90
20590;DHT22;10453;50.810;12.540;2023-09-18T01:27:13;14.20;99.90
20590;DHT22;10453;50.810;12.540;2023-09-18T01:31:31;14.10;99.90
20590;DHT22;10453;50.810;12.540;2023-09-18T01:35:48;14.00;99.90
20590;DHT22;10453;50.810;12.540;2023-09-18T01:40:06;14.00;99.90
20590;DHT22;10453;50.810;12.540;2023-09-18T01:44:24;14.00;99.90
20590;DHT22;10453;50.810;12.540;2023-09-18T01:48:45;14.00;99.90
20590;DHT22;10453;50.810;12.540;2023-09-18T01:53:02;13.90;99.90
20590;DHT22;10453;50.810;12.540;2023-09-18T01:57:20;13.80;99.90
20590;DHT22;10453;50.810;12.540;2023-09-18T02:01:38;13.80;99.90
20590;DHT22;10453;50.810;12.540;2023-09-18T02:05:55;13.80;99.90
20590;DHT22;10453;50.810;12.540;2023-09-18T02:10:13;13.70;99.90
20590;DHT22;10453;50.810;12.540;2023-09-18T02:14:30;13.70;99.90
20590;DHT22;10453;50.810;12.540;2023-09-18T02:18:48;13.60;99.90
20590;DHT22;10453;50.810;12.540;2023-09-18T02:23:06;13.70;99.90
20590;DHT22;10453;50.810;12.540;2023-09-18T02:27:24;13.80;99.90
20590;DHT22;10453;50.810;12.540;2023-09-18T02:31:41;13.90;99.90
20590;DHT22;10453;50.810;12.540;2023-09-18T02:35:58;13.90;99.90
20590;DHT22;10453;50.810;12.540;2023-09-18T02:40:15;13.80;99.90
20590;DHT22;10453;50.810;12.540;2023-09-18T02:44:32;13.70;99.90
20590;DHT22;10453;50.810;12.540;2023-09-18T02:48:50;13.70;99.90
20590;DHT22;10453;50.810;12.540;2023-09-18T02:53:12;13.80;99.90
20590;DHT22;10453;50.810;12.540;2023-09-18T02:57:33;13.90;99.90
20590;DHT22;10453;50.810;12.540;2023-09-18T03:01:50;13.70;99.90
20590;DHT22;10453;50.810;12.540;2023-09-18T03:06:07;13.60;99.90
20590;DHT22;10453;50.810;12.540;2023-09-18T03:10:24;13.60;99.90
20590;DHT22;10453;50.810;12.540;2023-09-18T03:14:42;13.70;99.90
20590;DHT22;10453;50.810;12.540;2023-09-18T03:18:59;13.80;99.90
20590;DHT22;10453;50.810;12.540;2023-09-18T03:23:16;14.00;99.90
20590;DHT22;10453;50.810;12.540;2023-09-18T03:27:34;14.20;99.90
20590;DHT22;10453;50.810;12.540;2023-09-18T03:31:51;14.30;99.90
20590;DHT22;10453;50.810;12.540;2023-09-18T03:36:08;14.40;99.90
20590;DHT22;10453;50.810;12.540;2023-09-18T03:40:28;14.40;99.90
20590;DHT22;10453;50.810;12.540;2023-09-18T03:44:45;14.50;99.90
20590;DHT22;10453;50.810;12.540;2023-09-18T03:49:02;14.50;99.90
20590;DHT22;10453;50.810;12.540;2023-09-18T03:53:20;14.50;99.90
20590;DHT22;10453;50.810;12.540;2023-09-18T03:57:38;14.60;99.90
20590;DHT22;10453;50.810;12.540;2023-09-18T04:01:56;14.60;99.90
20590;DHT22;10453;50.810;12.540;2023-09-18T04:06:13;14.60;99.90
20590;DHT22;10453;50.810;12.540;2023-09-18T04:10:30;14.50;99.90
20590;DHT22;10453;50.810;12.540;2023-09-18T04:14:47;14.50;99.90
20590;DHT22;10453;50.810;12.540;2023-09-18T04:19:05;14.30;99.90
20590;DHT22;10453;50.810;12.540;2023-09-18T04:23:24;14.20;99.90
20590;DHT22;10453;50.810;12.540;2023-09-18T04:27:42;14.10;99.90
20590;DHT22;10453;50.810;12.540;2023-09-18T04:31:59;13.90;99.90
20590;DHT22;10453;50.810;12.540;2023-09-18T04:36:16;14.00;99.90
20590;DHT22;10453;50.810;12.540;2023-09-18T04:40:34;14.10;99.90
20590;DHT22;10453;50.810;12.540;2023-09-18T04:44:52;14.30;99.90
20590;DHT22;10453;50.810;12.540;2023-09-18T04:49:09;14.40;99.90
20590;DHT22;10453;50.810;12.540;2023-09-18T04:53:28;14.40;99.90
20590;DHT22;10453;50.810;12.540;2023-09-18T04:57:45;14.40;99.90
20590;DHT22;10453;50.810;12.540;2023-09-18T05:02:03;14.40;99.90
20590;DHT22;10453;50.810;12.540;2023-09-18T05:06:21;14.40;99.90
20590;DHT22;10453;50.810;12.540;2023-09-18T05:10:39;14.30;99.90
20590;DHT22;10453;50.810;12.540;2023-09-18T05:14:56;14.20;99.90
20590;DHT22;10453;50.810;12.540;2023-09-18T05:19:15;14.30;99.90
20590;DHT22;10453;50.810;12.540;2023-09-18T05:23:32;14.40;99.90
20590;DHT22;10453;50.810;12.540;2023-09-18T05:27:50;14.40;99.90
20590;DHT22;10453;50.810;12.540;2023-09-18T05:32:13;14.40;99.90
20590;DHT22;10453;50.810;12.540;2023-09-18T05:36:30;14.40;99.90
20590;DHT22;10453;50.810;12.540;2023-09-18T05:40:48;14.50;99.90
20590;DHT22;10453;50.810;12.540;2023-09-18T05:45:06;14.60;99.90
20590;DHT22;10453;50.810;12.540;2023-09-18T05:49:25;14.60;99.90
20590;DHT22;10453;50.810;12.540;2023-09-18T05:53:44;14.60;99.90
20590;DHT22;10453;50.810;12.540;2023-09-18T05:58:01;14.70;99.90
20590;DHT22;10453;50.810;12.540;2023-09-18T06:02:20;14.70;99.90
20590;DHT22;10453;50.810;12.540;2023-09-18T06:06:38;14.70;99.90
20590;DHT22;10453;50.810;12.540;2023-09-18T06:10:55;14.80;99.90
20590;DHT22;10453;50.810;12.540;2023-09-18T06:15:12;15.00;99.90
20590;DHT22;10453;50.810;12.540;2023-09-18T06:19:30;15.20;99.90
20590;DHT22;10453;50.810;12.540;2023-09-18T06:23:47;15.50;99.90
20590;DHT22;10453;50.810;12.540;2023-09-18T06:28:04;15.90;99.90
20590;DHT22;10453;50.810;12.540;2023-09-18T06:32:22;16.20;99.90
20590;DHT22;10453;50.810;12.540;2023-09-18T06:36:39;16.60;99.90
20590;DHT22;10453;50.810;12.540;2023-09-18T06:40:57;17.10;99.90
20590;DHT22;10453;50.810;12.540;2023-09-18T06:45:14;17.50;99.90
20590;DHT22;10453;50.810;12.540;2023-09-18T06:49:32;17.90;99.90
20590;DHT22;10453;50.810;12.540;2023-09-18T06:53:49;18.20;99.90
20590;DHT22;10453;50.810;12.540;2023-09-18T06:58:06;18.50;99.90
20590;DHT22;10453;50.810;12.540;2023-09-18T07:02:23;18.80;99.90
20590;DHT22;10453;50.810;12.540;2023-09-18T07:06:41;19.10;99.90
20590;DHT22;10453;50.810;12.540;2023-09-18T07:10:58;19.50;99.90
20590;DHT22;10453;50.810;12.540;2023-09-18T07:15:16;20.00;99.90
20590;DHT22;10453;50.810;12.540;2023-09-18T07:19:34;20.20;99.90
20590;DHT22;10453;50.810;12.540;2023-09-18T07:23:51;20.70;99.90
20590;DHT22;10453;50.810;12.540;2023-09-18T07:28:09;21.10;99.90
20590;DHT22;10453;50.810;12.540;2023-09-18T07:32:30;21.30;99.90
20590;DHT22;10453;50.810;12.540;2023-09-18T07:36:54;21.60;99.90
20590;DHT22;10453;50.810;12.540;2023-09-18T07:41:13;21.90;99.90
20590;DHT22;10453;50.810;12.540;2023-09-18T07:45:33;21.80;99.90
20590;DHT22;10453;50.810;12.540;2023-09-18T07:49:51;21.60;99.90
20590;DHT22;10453;50.810;12.540;2023-09-18T07:54:13;21.90;99.90
20590;DHT22;10453;50.810;12.540;2023-09-18T07:58:31;22.10;99.90
20590;DHT22;10453;50.810;12.540;2023-09-18T08:02:50;22.40;99.90
20590;DHT22;10453;50.810;12.540;2023-09-18T08:07:13;22.80;99.90
20590;DHT22;10453;50.810;12.540;2023-09-18T08:11:30;22.90;99.90
20590;DHT22;10453;50.810;12.540;2023-09-18T08:15:47;23.10;99.90
20590;DHT22;10453;50.810;12.540;2023-09-18T08:20:05;23.00;99.90
20590;DHT22;10453;50.810;12.540;2023-09-18T08:24:29;23.20;99.90
20590;DHT22;10453;50.810;12.540;2023-09-18T08:28:46;23.30;99.90
20590;DHT22;10453;50.810;12.540;2023-09-18T08:33:03;23.40;99.90
20590;DHT22;10453;50.810;12.540;2023-09-18T08:37:21;23.70;99.90
20590;DHT22;10453;50.810;12.540;2023-09-18T08:41:41;24.10;99.90
20590;DHT22;10453;50.810;12.540;2023-09-18T08:45:59;24.50;99.90
20590;DHT22;10453;50.810;12.540;2023-09-18T08:50:18;25.10;99.90
20590;DHT22;10453;50.810;12.540;2023-09-18T08:54:37;25.00;99.90
20590;DHT22;10453;50.810;12.540;2023-09-18T08:58:54;25.10;99.90
20590;DHT22;10453;50.810;12.540;2023-09-18T09:03:13;25.10;99.90
20590;DHT22;10453;50.810;12.540;2023-09-18T09:07:32;25.30;99.90
20590;DHT22;10453;50.810;12.540;2023-09-18T09:11:49;25.50;99.90
20590;DHT22;10453;50.810;12.540;2023-09-18T09:16:07;25.10;99.90
20590;DHT22;10453;50.810;12.540;2023-09-18T09:20:27;24.70;99.90
20590;DHT22;10453;50.810;12.540;2023-09-18T09:24:45;24.60;99.90
20590;DHT22;10453;50.810;12.540;2023-09-18T09:29:16;24.50;99.90
20590;DHT22;10453;50.810;12.540;2023-09-18T09:33:35;24.60;99.90
20590;DHT22;10453;50.810;12.540;2023-09-18T09:38:11;24.50;99.90
20590;DHT22;10453;50.810;12.540;2023-09-18T09:42:29;24.50;99.90
20590;DHT22;10453;50.810;12.540;2023-09-18T09:46:55;24.70;99.90
20590;DHT22;10453;50.810;12.540;2023-09-18T09:51:15;25.10;99.90
20590;DHT22;10453;50.810;12.540;2023-09-18T09:55:37;25.40;99.90
20590;DHT22;10453;50.810;12.540;2023-09-18T10:00:02;25.50;99.90
20590;DHT22;10453;50.810;12.540;2023-09-18T10:04:24;25.40;99.90
20590;DHT22;10453;50.810;12.540;2023-09-18T10:08:44;25.60;99.90
20590;DHT22;10453;50.810;12.540;2023-09-18T10:13:09;26.00;99.90
20590;DHT22;10453;50.810;12.540;2023-09-18T10:17:26;27.30;99.90
20590;DHT22;10453;50.810;12.540;2023-09-18T10:21:56;28.60;99.90
20590;DHT22;10453;50.810;12.540;2023-09-18T10:26:19;28.90;99.90
20590;DHT22;10453;50.810;12.540;2023-09-18T10:30:41;27.70;99.90
20590;DHT22;10453;50.810;12.540;2023-09-18T10:34:59;27.30;99.90
20590;DHT22;10453;50.810;12.540;2023-09-18T10:39:17;27.50;99.90
20590;DHT22;10453;50.810;12.540;2023-09-18T10:43:37;27.80;99.90
20590;DHT22;10453;50.810;12.540;2023-09-18T10:47:55;27.50;99.90
20590;DHT22;10453;50.810;12.540;2023-09-18T10:52:13;27.40;99.90
20590;DHT22;10453;50.810;12.540;2023-09-18T10:56:31;27.90;99.90
20590;DHT22;10453;50.810;12.540;2023-09-18T11:00:49;27.50;99.90
20590;DHT22;10453;50.810;12.540;2023-09-18T11:05:07;27.50;99.90
20590;DHT22;10453;50.810;12.540;2023-09-18T11:09:29;28.00;99.90
20590;DHT22;10453;50.810;12.540;2023-09-18T11:13:47;29.50;99.90
20590;DHT22;10453;50.810;12.540;2023-09-18T11:18:06;29.50;99.90
20590;DHT22;10453;50.810;12.540;2023-09-18T11:22:25;28.50;99.90
20590;DHT22;10453;50.810;12.540;2023-09-18T11:26:43;28.10;99.90
20590;DHT22;10453;50.810;12.540;2023-09-18T11:31:01;28.00;99.90
20590;DHT22;10453;50.810;12.540;2023-09-18T11:35:19;27.50;99.90
20590;DHT22;10453;50.810;12.540;2023-09-18T11:39:37;27.20;99.90
20590;DHT22;10453;50.810;12.540;2023-09-18T11:44:31;27.20;99.90
20590;DHT22;10453;50.810;12.540;2023-09-18T11:48:44;26.90;99.90
20590;DHT22;10453;50.810;12.540;2023-09-18T11:53:02;27.00;99.90
20590;DHT22;10453;50.810;12.540;2023-09-18T11:57:20;27.10;99.90
20590;DHT22;10453;50.810;12.540;2023-09-18T12:01:37;27.00;99.90
20590;DHT22;10453;50.810;12.540;2023-09-18T12:06:02;27.10;99.90
20590;DHT22;10453;50.810;12.540;2023-09-18T12:10:23;27.10;99.90
20590;DHT22;10453;50.810;12.540;2023-09-18T12:14:40;26.90;99.90
20590;DHT22;10453;50.810;12.540;2023-09-18T12:18:59;27.00;99.90
20590;DHT22;10453;50.810;12.540;2023-09-18T12:23:19;26.70;99.90
20590;DHT22;10453;50.810;12.540;2023-09-18T12:27:36;26.30;99.90
20590;DHT22;10453;50.810;12.540;2023-09-18T12:31:54;26.00;99.90
20590;DHT22;10453;50.810;12.540;2023-09-18T12:36:12;25.70;99.90
20590;DHT22;10453;50.810;12.540;2023-09-18T12:40:31;25.50;99.90
20590;DHT22;10453;50.810;12.540;2023-09-18T12:44:51;25.50;99.90
20590;DHT22;10453;50.810;12.540;2023-09-18T12:49:16;25.50;99.90
20590;DHT22;10453;50.810;12.540;2023-09-18T12:53:33;25.30;99.90
20590;DHT22;10453;50.810;12.540;2023-09-18T12:57:51;25.00;99.90
20590;DHT22;10453;50.810;12.540;2023-09-18T13:02:12;24.60;99.90
20590;DHT22;10453;50.810;12.540;2023-09-18T13:06:30;24.50;99.90
20590;DHT22;10453;50.810;12.540;2023-09-18T13:10:47;24.50;99.90
20590;DHT22;10453;50.810;12.540;2023-09-18T13:15:06;24.40;99.90
20590;DHT22;10453;50.810;12.540;2023-09-18T13:19:29;24.30;99.90
20590;DHT22;10453;50.810;12.540;2023-09-18T13:23:47;24.30;99.90
20590;DHT22;10453;50.810;12.540;2023-09-18T13:28:05;24.30;99.90
20590;DHT22;10453;50.810;12.540;2023-09-18T13:32:23;23.80;99.90
20590;DHT22;10453;50.810;12.540;2023-09-18T13:36:42;23.10;99.90
20590;DHT22;10453;50.810;12.540;2023-09-18T13:40:59;22.40;99.90
20590;DHT22;10453;50.810;12.540;2023-09-18T13:45:17;21.90;99.90
20590;DHT22;10453;50.810;12.540;2023-09-18T13:49:35;21.50;99.90
20590;DHT22;10453;50.810;12.540;2023-09-18T13:53:52;21.40;99.90
20590;DHT22;10453;50.810;12.540;2023-09-18T13:58:09;21.10;99.90
20590;DHT22;10453;50.810;12.540;2023-09-18T14:02:27;21.20;99.90
20590;DHT22;10453;50.810;12.540;2023-09-18T14:06:45;21.30;99.90
20590;DHT22;10453;50.810;12.540;2023-09-18T14:11:04;21.40;99.90
20590;DHT22;10453;50.810;12.540;2023-09-18T14:15:23;21.60;99.90
20590;DHT22;10453;50.810;12.540;2023-09-18T14:19:41;21.50;99.90
20590;DHT22;10453;50.810;12.540;2023-09-18T14:23:58;21.40;99.90
20590;DHT22;10453;50.810;12.540;2023-09-18T14:28:16;21.20;99.90
20590;DHT22;10453;50.810;12.540;2023-09-18T14:32:33;20.90;99.90
20590;DHT22;10453;50.810;12.540;2023-09-18T14:36:53;20.60;99.90
20590;DHT22;10453;50.810;12.540;2023-09-18T14:41:11;20.30;99.90
20590;DHT22;10453;50.810;12.540;2023-09-18T14:45:28;20.10;99.90
20590;DHT22;10453;50.810;12.540;2023-09-18T14:49:47;20.00;99.90
20590;DHT22;10453;50.810;12.540;2023-09-18T14:54:05;20.00;99.90
20590;DHT22;10453;50.810;12.540;2023-09-18T14:58:25;19.80;99.90
20590;DHT22;10453;50.810;12.540;2023-09-18T15:02:42;19.60;99.90
20590;DHT22;10453;50.810;12.540;2023-09-18T15:07:01;19.60;99.90
20590;DHT22;10453;50.810;12.540;2023-09-18T15:11:19;19.50;99.90
20590;DHT22;10453;50.810;12.540;2023-09-18T15:15:37;19.30;99.90
20590;DHT22;10453;50.810;12.540;2023-09-18T15:19:54;19.30;99.90
20590;DHT22;10453;50.810;12.540;2023-09-18T15:24:13;19.10;99.90
20590;DHT22;10453;50.810;12.540;2023-09-18T15:28:31;19.00;99.90
20590;DHT22;10453;50.810;12.540;2023-09-18T15:32:52;18.90;99.90
20590;DHT22;10453;50.810;12.540;2023-09-18T15:37:14;18.80;99.90
20590;DHT22;10453;50.810;12.540;2023-09-18T15:41:33;18.80;99.90
20590;DHT22;10453;50.810;12.540;2023-09-18T15:45:52;18.70;99.90
20590;DHT22;10453;50.810;12.540;2023-09-18T15:50:11;18.70;99.90
20590;DHT22;10453;50.810;12.540;2023-09-18T15:54:28;18.50;99.90
20590;DHT22;10453;50.810;12.540;2023-09-18T15:58:46;18.50;99.90
20590;DHT22;10453;50.810;12.540;2023-09-18T16:03:03;18.50;99.90
20590;DHT22;10453;50.810;12.540;2023-09-18T16:07:21;18.40;99.90
20590;DHT22;10453;50.810;12.540;2023-09-18T16:11:39;18.40;99.90
20590;DHT22;10453;50.810;12.540;2023-09-18T16:16:04;18.30;99.90
20590;DHT22;10453;50.810;12.540;2023-09-18T16:20:22;18.40;99.90
20590;DHT22;10453;50.810;12.540;2023-09-18T16:24:39;18.40;99.90
20590;DHT22;10453;50.810;12.540;2023-09-18T16:28:57;18.40;99.90
20590;DHT22;10453;50.810;12.540;2023-09-18T16:33:15;18.30;99.90
20590;DHT22;10453;50.810;12.540;2023-09-18T16:37:33;18.30;99.90
20590;DHT22;10453;50.810;12.540;2023-09-18T16:41:53;18.30;99.90
20590;DHT22;10453;50.810;12.540;2023-09-18T16:46:11;18.10;99.90
20590;DHT22;10453;50.810;12.540;2023-09-18T16:50:29;18.10;99.90
20590;DHT22;10453;50.810;12.540;2023-09-18T16:54:46;18.10;99.90
20590;DHT22;10453;50.810;12.540;2023-09-18T16:59:07;18.00;99.90
20590;DHT22;10453;50.810;12.540;2023-09-18T17:03:24;18.00;99.90
20590;DHT22;10453;50.810;12.540;2023-09-18T17:07:42;17.90;99.90
20590;DHT22;10453;50.810;12.540;2023-09-18T17:12:00;17.90;99.90
20590;DHT22;10453;50.810;12.540;2023-09-18T17:16:18;17.90;99.90
20590;DHT22;10453;50.810;12.540;2023-09-18T17:20:37;17.90;99.90
20590;DHT22;10453;50.810;12.540;2023-09-18T17:24:56;17.80;99.90
20590;DHT22;10453;50.810;12.540;2023-09-18T17:29:14;17.80;99.90
20590;DHT22;10453;50.810;12.540;2023-09-18T17:33:31;17.80;99.90
20590;DHT22;10453;50.810;12.540;2023-09-18T17:37:49;17.70;99.90
20590;DHT22;10453;50.810;12.540;2023-09-18T17:42:07;17.70;99.90
20590;DHT22;10453;50.810;12.540;2023-09-18T17:46:25;17.60;99.90
20590;DHT22;10453;50.810;12.540;2023-09-18T17:50:44;17.50;99.90
20590;DHT22;10453;50.810;12.540;2023-09-18T17:55:04;17.50;99.90
20590;DHT22;10453;50.810;12.540;2023-09-18T17:59:23;17.40;99.90
20590;DHT22;10453;50.810;12.540;2023-09-18T18:03:40;17.30;99.90
20590;DHT22;10453;50.810;12.540;2023-09-18T18:08:01;17.20;99.90
20590;DHT22;10453;50.810;12.540;2023-09-18T18:12:18;17.20;99.90
20590;DHT22;10453;50.810;12.540;2023-09-18T18:16:37;17.20;99.90
20590;DHT22;10453;50.810;12.540;2023-09-18T18:20:55;17.10;99.90
20590;DHT22;10453;50.810;12.540;2023-09-18T18:25:13;17.20;99.90
20590;DHT22;10453;50.810;12.540;2023-09-18T18:29:33;17.20;99.90
20590;DHT22;10453;50.810;12.540;2023-09-18T18:33:51;17.20;99.90
20590;DHT22;10453;50.810;12.540;2023-09-18T18:38:09;17.10;99.90
20590;DHT22;10453;50.810;12.540;2023-09-18T18:42:27;17.10;99.90
20590;DHT22;10453;50.810;12.540;2023-09-18T18:46:47;17.00;99.90
20590;DHT22;10453;50.810;12.540;2023-09-18T18:51:12;17.00;99.90
20590;DHT22;10453;50.810;12.540;2023-09-18T18:55:33;17.00;99.90
20590;DHT22;10453;50.810;12.540;2023-09-18T18:59:50;16.90;99.90
20590;DHT22;10453;50.810;12.540;2023-09-18T19:04:08;16.90;99.90
20590;DHT22;10453;50.810;12.540;2023-09-18T19:08:26;16.80;99.90
20590;DHT22;10453;50.810;12.540;2023-09-18T19:12:45;16.80;99.90
20590;DHT22;10453;50.810;12.540;2023-09-18T19:17:03;16.80;99.90
20590;DHT22;10453;50.810;12.540;2023-09-18T19:21:22;16.70;99.90
20590;DHT22;10453;50.810;12.540;2023-09-18T19:25:51;16.70;99.90
20590;DHT22;10453;50.810;12.540;2023-09-18T19:30:11;16.70;99.90
20590;DHT22;10453;50.810;12.540;2023-09-18T19:34:30;16.80;99.90
20590;DHT22;10453;50.810;12.540;2023-09-18T19:38:47;16.80;99.90
20590;DHT22;10453;50.810;12.540;2023-09-18T19:43:05;16.80;99.90
20590;DHT22;10453;50.810;12.540;2023-09-18T19:47:22;16.80;99.90
20590;DHT22;10453;50.810;12.540;2023-09-18T19:51:39;16.80;99.90
20590;DHT22;10453;50.810;12.540;2023-09-18T19:55:57;16.80;99.90
20590;DHT22;10453;50.810;12.540;2023-09-18T20:00:14;16.70;99.90
20590;DHT22;10453;50.810;12.540;2023-09-18T20:04:33;16.70;99.90
20590;DHT22;10453;50.810;12.540;2023-09-18T20:08:57;16.60;99.90
20590;DHT22;10453;50.810;12.540;2023-09-18T20:13:15;16.60;99.90
20590;DHT22;10453;50.810;12.540;2023-09-18T20:17:32;16.60;99.90
20590;DHT22;10453;50.810;12.540;2023-09-18T20:21:50;16.60;99.90
20590;DHT22;10453;50.810;12.540;2023-09-18T20:26:08;16.60;99.90
20590;DHT22;10453;50.810;12.540;2023-09-18T20:30:25;16.50;99.90
20590;DHT22;10453;50.810;12.540;2023-09-18T20:34:43;16.50;99.90
20590;DHT22;10453;50.810;12.540;2023-09-18T20:39:00;16.40;99.90
20590;DHT22;10453;50.810;12.540;2023-09-18T20:43:19;16.40;99.90
20590;DHT22;10453;50.810;12.540;2023-09-18T20:47:41;16.60;99.90
20590;DHT22;10453;50.810;12.540;2023-09-18T20:52:01;16.60;99.90
20590;DHT22;10453;50.810;12.540;2023-09-18T20:56:18;16.60;99.90
20590;DHT22;10453;50.810;12.540;2023-09-18T21:00:36;16.60;99.90
20590;DHT22;10453;50.810;12.540;2023-09-18T21:04:55;16.60;99.90
20590;DHT22;10453;50.810;12.540;2023-09-18T21:09:12;16.60;99.90
20590;DHT22;10453;50.810;12.540;2023-09-18T21:13:30;16.60;99.90
20590;DHT22;10453;50.810;12.540;2023-09-18T21:17:47;16.60;99.90
20590;DHT22;10453;50.810;12.540;2023-09-18T21:22:04;16.60;99.90
20590;DHT22;10453;50.810;12.540;2023-09-18T21:26:21;16.70;99.90
20590;DHT22;10453;50.810;12.540;2023-09-18T21:30:39;16.70;99.90
20590;DHT22;10453;50.810;12.540;2023-09-18T21:34:56;16.60;99.90
20590;DHT22;10453;50.810;12.540;2023-09-18T21:39:13;16.70;99.90
20590;DHT22;10453;50.810;12.540;2023-09-18T21:43:30;16.50;99.90
20590;DHT22;10453;50.810;12.540;2023-09-18T21:47:47;16.50;99.90
20590;DHT22;10453;50.810;12.540;2023-09-18T21:52:07;16.50;99.90
20590;DHT22;10453;50.810;12.540;2023-09-18T21:56:24;16.60;99.90
20590;DHT22;10453;50.810;12.540;2023-09-18T22:00:41;16.60;99.90
20590;DHT22;10453;50.810;12.540;2023-09-18T22:05:01;16.50;99.90
20590;DHT22;10453;50.810;12.540;2023-09-18T22:09:18;16.60;99.90
20590;DHT22;10453;50.810;12.540;2023-09-18T22:13:37;16.60;99.90
20590;DHT22;10453;50.810;12.540;2023-09-18T22:17:54;16.60;99.90
20590;DHT22;10453;50.810;12.540;2023-09-18T22:22:11;16.50;99.90
20590;DHT22;10453;50.810;12.540;2023-09-18T22:26:31;16.60;99.90
20590;DHT22;10453;50.810;12.540;2023-09-18T22:30:48;16.60;99.90
20590;DHT22;10453;50.810;12.540;2023-09-18T22:35:08;16.50;99.90
20590;DHT22;10453;50.810;12.540;2023-09-18T22:57:25;16.50;99.90
20590;DHT22;10453;50.810;12.540;2023-09-18T23:01:44;16.60;99.90
20590;DHT22;10453;50.810;12.540;2023-09-18T23:06:01;16.70;99.90
20590;DHT22;10453;50.810;12.540;2023-09-18T23:10:19;16.70;99.90
20590;DHT22;10453;50.810;12.540;2023-09-18T23:14:36;16.70;99.90
20590;DHT22;10453;50.810;12.540;2023-09-18T23:18:54;16.70;99.90
20590;DHT22;10453;50.810;12.540;2023-09-18T23:23:12;16.80;99.90
20590;DHT22;10453;50.810;12.540;2023-09-18T23:27:30;16.80;99.90
20590;DHT22;10453;50.810;12.540;2023-09-18T23:31:47;16.80;99.90
20590;DHT22;10453;50.810;12.540;2023-09-18T23:36:04;16.90;99.90
20590;DHT22;10453;50.810;12.540;2023-09-18T23:40:21;16.90;99.90
20590;DHT22;10453;50.810;12.540;2023-09-18T23:44:39;16.90;99.90
20590;DHT22;10453;50.810;12.540;2023-09-18T23:48:56;17.00;99.90
20590;DHT22;10453;50.810;12.540;2023-09-18T23:53:22;16.90;99.90
20590;DHT22;10453;50.810;12.540;2023-09-18T23:57:48;17.00;99.90
